Aeroporto :
LOGIN :

Iscrizione | Disclaimer

   EN    FR    IT 

 










Sommario :    VFR   VFR Marginale   IFR   IFR Intensivo   IFR Molto Intensivo
Visibilità : 
Base nubi : 
>= 8 km
>= 3000ft
5 / 8 km
1000 / 3000 ft
1500m / 5 km
500 / 1000 ft
800 / 1500m
200 / 500 ft
< 800m
< 200 ft
Simboli :   Temporali  Nebbia  Neve Forte  Precipitazioni Forti  Vento > 20 kt
SIGMETs :   Varie  Temporali  Ghiacco  Turbolenza  Onda orograficha  Ceneri Vulcaniche






- Altitudine del aeroporto : 499 ft
- Codice IATA : TLS


LFBO - Toulouse / Blagnac

ULTIMO METAR :
  • 270430Z AUTO 28011KT 9999 BKN011 08/07 Q1014 TEMPO BKN007

METARs OBSOLETI :
  • 270400Z AUTO 29011KT 9999 BKN009 08/07 Q1014 NOSIG
  • 270330Z AUTO 28011KT 9999 FEW010 08/07 Q1014 TEMPO BKN007
  • 270300Z AUTO 27012KT CAVOK 08/07 Q1014 TEMPO BKN007
  • 270230Z AUTO 28011KT 9999 FEW010 08/07 Q1014 TEMPO BKN007
  • 270200Z AUTO 28011KT 9999 FEW009 08/07 Q1014 TEMPO BKN007

TAF AMD TAF LFBO
Valido dal 27 a 00 ore il 28 a 06 ore UTC


270010Z 2700/2806 28010KT 9999 SCT015 BKN030
TEMPO 2700/2707 BKN007
BECMG 2708/2710 SCT035
TEMPO 2710/2716 29015G25KT
BECMG 2715/2717 BKN014
PROB40
TEMPO 2717/2806 4000 -RADZ BKN009
ATIS : +33 5 62 74 66 36



MetMap, La meteo Aeronautica in un colpo d'occhio ! - Copyright ORBIFLY Dicembre 2007 - Disclaimer

ORBIFLY MET'MAP TEAM :

Programmazione e sviluppo : Alexandra Zaïnal
Concezione : Baudouin d'Aumeries
Aiuto per la programmazione : Marc-Olivier Méhu
Supporto tecnico e logistico : Manuel Goepfert
Aiuto per la traduzione : Arnaldo La Scala

Contatto : metmap@orbifly.com




FONTI E CREDITI :

   NOAA